createdAt,value
2018-11-25T00:00:32.908Z,23.07
2018-11-25T00:03:02.393Z,22.60
2018-11-25T00:05:31.841Z,23.47
2018-11-25T00:08:00.894Z,22.60
2018-11-25T00:10:29.998Z,22.47
2018-11-25T00:12:59.029Z,23.10
2018-11-25T00:15:28.217Z,20.77
2018-11-25T00:17:57.511Z,21.07
2018-11-25T00:20:26.843Z,21.87
2018-11-25T00:22:56.135Z,20.40
2018-11-25T00:25:25.318Z,19.30
2018-11-25T00:27:54.697Z,19.97
2018-11-25T00:30:24.105Z,17.57
2018-11-25T00:32:53.439Z,19.10
2018-11-25T00:35:22.649Z,18.33
2018-11-25T00:37:52.097Z,18.00
2018-11-25T00:40:21.372Z,21.30
2018-11-25T00:42:50.608Z,18.07
2018-11-25T00:45:20.677Z,18.27
2018-11-25T00:47:50.532Z,19.33
2018-11-25T00:50:19.850Z,21.50
2018-11-25T00:52:49.189Z,17.47
2018-11-25T00:55:18.835Z,19.00
2018-11-25T00:57:48.085Z,17.90
2018-11-25T01:00:19.353Z,18.53
2018-11-25T01:02:49.683Z,19.40
2018-11-25T01:05:19.356Z,20.07
2018-11-25T01:07:48.858Z,20.23
2018-11-25T01:10:18.405Z,21.10
2018-11-25T01:12:47.636Z,17.50
2018-11-25T01:15:17.925Z,19.43
2018-11-25T01:17:47.432Z,19.07
2018-11-25T01:20:18.765Z,18.80
2018-11-25T01:22:48.080Z,19.40
2018-11-25T01:25:17.436Z,16.90
2018-11-25T01:27:46.530Z,18.07
2018-11-25T01:30:16.884Z,15.90
2018-11-25T01:32:46.339Z,13.93
2018-11-25T01:35:15.714Z,16.20
2018-11-25T01:37:45.052Z,18.53
2018-11-25T01:40:17.571Z,18.93
2018-11-25T01:42:46.781Z,19.17
2018-11-25T01:45:17.250Z,17.07
2018-11-25T01:47:46.450Z,17.13
2018-11-25T01:50:16.805Z,17.23
2018-11-25T01:52:46.127Z,18.40
2018-11-25T01:55:16.509Z,18.60
2018-11-25T01:57:45.753Z,16.47
2018-11-25T02:00:18.085Z,18.90
2018-11-25T02:02:47.570Z,18.20
2018-11-25T02:05:17.115Z,16.17
2018-11-25T02:07:46.720Z,16.57
2018-11-25T02:10:17.933Z,17.10
2018-11-25T02:12:47.495Z,20.70
2018-11-25T02:15:17.517Z,17.97
2018-11-25T02:17:47.470Z,17.60
2018-11-25T02:20:19.360Z,17.60
2018-11-25T02:22:48.522Z,19.83
2018-11-25T02:25:17.737Z,19.17
2018-11-25T02:27:47.474Z,19.63
2018-11-25T02:30:17.732Z,18.60
2018-11-25T02:32:47.505Z,17.07
2018-11-25T02:35:17.337Z,17.10
2018-11-25T02:37:46.472Z,17.00
2018-11-25T02:40:16.607Z,18.90
2018-11-25T02:42:46.013Z,18.90
2018-11-25T02:45:19.440Z,18.13
2018-11-25T02:47:48.645Z,15.80
2018-11-25T02:50:31.293Z,17.80
2018-11-25T02:53:02.662Z,17.73
2018-11-25T02:55:31.785Z,16.10
2018-11-25T02:58:01.089Z,14.47
2018-11-25T03:00:30.281Z,15.73
2018-11-25T03:02:59.688Z,15.40
2018-11-25T03:05:28.873Z,16.83
2018-11-25T03:07:58.193Z,16.43
2018-11-25T03:10:27.309Z,11.60
2018-11-25T03:12:56.459Z,15.20
2018-11-25T03:15:25.730Z,19.77
2018-11-25T03:17:54.841Z,16.13
2018-11-25T03:20:24.154Z,16.27
2018-11-25T03:22:53.502Z,14.30
2018-11-25T03:25:22.767Z,16.53
2018-11-25T03:27:52.292Z,15.07
2018-11-25T03:30:22.143Z,13.50
2018-11-25T03:32:53.190Z,15.27
2018-11-25T03:35:22.467Z,12.63
2018-11-25T03:37:51.650Z,11.00
2018-11-25T03:40:20.919Z,10.40
2018-11-25T03:42:50.163Z,12.87
2018-11-25T03:45:20.401Z,14.20
2018-11-25T03:47:49.575Z,12.10
2018-11-25T03:50:18.765Z,11.40
2018-11-25T03:52:47.925Z,10.43
2018-11-25T03:55:17.961Z,12.10
2018-11-25T03:57:47.158Z,15.00
2018-11-25T04:00:19.449Z,12.53
2018-11-25T04:02:48.909Z,12.40
2018-11-25T04:05:18.432Z,13.37
2018-11-25T04:07:47.570Z,12.37
2018-11-25T04:10:17.780Z,14.30
2018-11-25T04:12:46.942Z,13.63
2018-11-25T04:15:16.969Z,15.90
2018-11-25T04:17:46.403Z,17.57
2018-11-25T04:20:19.477Z,15.93
2018-11-25T04:22:48.858Z,13.83
2018-11-25T04:25:18.209Z,13.00
2018-11-25T04:27:47.331Z,9.77
2018-11-25T04:30:17.401Z,10.40
2018-11-25T04:32:47.645Z,11.50
2018-11-25T04:35:16.801Z,12.43
2018-11-25T04:37:45.967Z,12.67
2018-11-25T04:40:16.001Z,14.47
2018-11-25T04:42:45.185Z,12.63
2018-11-25T04:45:15.113Z,9.80
2018-11-25T04:47:44.714Z,12.57
2018-11-25T04:50:16.901Z,12.10
2018-11-25T04:52:46.134Z,12.67
2018-11-25T04:55:15.357Z,11.90
2018-11-25T04:57:49.798Z,11.80
2018-11-25T05:00:19.301Z,14.90
2018-11-25T05:02:48.850Z,15.20
2018-11-25T05:05:18.254Z,19.13
2018-11-25T05:07:47.380Z,15.87
2018-11-25T05:10:18.435Z,19.70
2018-11-25T05:12:47.552Z,20.93
2018-11-25T05:15:21.611Z,17.83
2018-11-25T05:17:50.969Z,20.33
2018-11-25T05:20:20.659Z,13.20
2018-11-25T05:22:49.765Z,16.40
2018-11-25T05:25:19.841Z,14.43
2018-11-25T05:27:49.028Z,18.80
2018-11-25T05:30:19.364Z,20.47
2018-11-25T05:32:48.576Z,14.67
2018-11-25T05:35:18.826Z,17.50
2018-11-25T05:37:48.014Z,19.20
2018-11-25T05:40:17.497Z,16.17
2018-11-25T05:42:46.793Z,14.07
2018-11-25T05:45:17.792Z,16.23
2018-11-25T05:47:47.062Z,13.80
2018-11-25T05:50:17.303Z,13.60
2018-11-25T05:52:46.522Z,13.60
2018-11-25T05:55:15.766Z,18.57
2018-11-25T05:57:44.961Z,17.73
2018-11-25T06:00:17.294Z,15.50
2018-11-25T06:02:46.453Z,18.30
2018-11-25T06:05:15.568Z,15.87
2018-11-25T06:07:45.092Z,14.90
2018-11-25T06:10:14.710Z,18.63
2018-11-25T06:12:43.914Z,18.30
2018-11-25T06:15:14.929Z,18.30
2018-11-25T06:17:44.085Z,20.50
2018-11-25T06:20:14.357Z,18.67
2018-11-25T06:22:43.591Z,20.60
2018-11-25T06:25:16.921Z,18.57
2018-11-25T06:27:46.163Z,20.43
2018-11-25T06:30:16.340Z,18.30
2018-11-25T06:32:45.523Z,17.03
2018-11-25T06:35:15.559Z,19.70
2018-11-25T06:37:45.322Z,23.87
2018-11-25T06:40:15.572Z,18.83
2018-11-25T06:42:44.770Z,17.80
2018-11-25T06:45:17.171Z,19.30
2018-11-25T06:47:46.353Z,17.73
2018-11-25T06:50:15.494Z,17.97
2018-11-25T06:52:44.605Z,20.07
2018-11-25T06:55:13.913Z,15.87
2018-11-25T06:57:43.091Z,14.10
2018-11-25T07:00:16.391Z,17.97
2018-11-25T07:02:45.584Z,15.47
2018-11-25T07:05:14.945Z,15.30
2018-11-25T07:07:44.082Z,16.33
2018-11-25T07:10:19.042Z,18.27
2018-11-25T07:12:49.118Z,14.00
2018-11-25T07:15:18.850Z,15.57
2018-11-25T07:17:48.156Z,15.67
2018-11-25T07:20:18.228Z,17.37
2018-11-25T07:22:47.390Z,16.07
2018-11-25T07:25:19.414Z,15.77
2018-11-25T07:27:48.512Z,15.43
2018-11-25T07:30:24.651Z,16.23
2018-11-25T07:32:53.799Z,15.53
2018-11-25T07:35:23.851Z,14.97
2018-11-25T07:37:52.994Z,17.43
2018-11-25T07:40:22.934Z,17.43
2018-11-25T07:42:52.080Z,18.13
2018-11-25T07:45:29.688Z,15.97
2018-11-25T07:47:52.397Z,15.93
2018-11-25T07:50:21.647Z,13.60
2018-11-25T07:52:51.401Z,14.37
2018-11-25T07:55:21.621Z,13.93
2018-11-25T07:57:51.776Z,13.20
2018-11-25T08:00:22.998Z,12.57
2018-11-25T08:02:52.128Z,13.67
2018-11-25T08:05:23.505Z,12.80
2018-11-25T08:07:52.677Z,12.90
2018-11-25T08:10:21.957Z,14.07
2018-11-25T08:12:51.081Z,16.10
2018-11-25T08:15:20.666Z,13.37
2018-11-25T08:17:49.836Z,13.30
2018-11-25T08:20:20.642Z,12.57
2018-11-25T08:22:49.875Z,13.47
2018-11-25T08:25:20.864Z,13.33
2018-11-25T08:27:50.029Z,11.57
2018-11-25T08:30:20.764Z,13.33
2018-11-25T08:32:50.075Z,13.60
2018-11-25T08:35:19.450Z,11.00
2018-11-25T08:37:49.012Z,13.43
2018-11-25T08:40:22.998Z,13.30
2018-11-25T08:42:52.255Z,13.63
2018-11-25T08:45:21.426Z,12.97
2018-11-25T08:47:50.475Z,12.33
2018-11-25T08:50:20.547Z,12.10
2018-11-25T08:52:51.670Z,14.37
2018-11-25T08:55:21.958Z,14.53
2018-11-25T08:57:51.146Z,14.20
2018-11-25T09:00:22.320Z,13.83
2018-11-25T09:02:52.185Z,21.60
2018-11-25T09:05:22.368Z,14.93
2018-11-25T09:07:51.569Z,12.90
2018-11-25T09:10:21.427Z,12.30
2018-11-25T09:12:56.033Z,11.37
2018-11-25T09:15:25.243Z,12.60
2018-11-25T09:17:54.371Z,12.30
2018-11-25T09:20:23.621Z,13.30
2018-11-25T09:22:53.184Z,12.30
2018-11-25T09:25:26.498Z,11.37
2018-11-25T09:27:56.042Z,12.20
2018-11-25T09:30:27.183Z,12.40
2018-11-25T09:32:56.350Z,12.03
2018-11-25T09:35:25.770Z,13.50
2018-11-25T09:37:55.017Z,13.27
2018-11-25T09:40:26.822Z,13.57
2018-11-25T09:42:56.049Z,11.80
2018-11-25T09:45:25.210Z,14.60
2018-11-25T09:47:54.329Z,15.60
2018-11-25T09:50:24.306Z,16.63
2018-11-25T09:52:53.615Z,16.37
2018-11-25T09:55:25.426Z,14.43
2018-11-25T09:57:58.885Z,18.10
2018-11-25T10:00:31.184Z,13.60
2018-11-25T10:03:00.651Z,15.50
2018-11-25T10:05:29.856Z,14.83
2018-11-25T10:07:59.038Z,16.33
2018-11-25T10:10:28.176Z,14.20
2018-11-25T10:12:57.294Z,13.53
2018-11-25T10:15:27.737Z,15.90
2018-11-25T10:17:59.886Z,15.90
2018-11-25T10:20:27.142Z,15.43
2018-11-25T10:22:56.401Z,18.00
2018-11-25T10:25:25.569Z,15.80
2018-11-25T10:27:54.829Z,14.40
2018-11-25T10:30:26.884Z,16.13
2018-11-25T10:33:01.091Z,15.47
2018-11-25T10:35:30.331Z,16.53
2018-11-25T10:37:59.522Z,16.50
2018-11-25T10:40:28.751Z,15.93
2018-11-25T10:42:58.057Z,16.97
2018-11-25T10:45:28.269Z,18.77
2018-11-25T10:47:58.289Z,17.43
2018-11-25T10:50:27.446Z,16.53
2018-11-25T10:52:56.567Z,17.60
2018-11-25T10:55:25.728Z,15.57
2018-11-25T10:57:55.029Z,15.93
2018-11-25T11:01:46.285Z,15.83
2018-11-25T11:04:19.526Z,15.93
2018-11-25T11:06:53.726Z,16.57
2018-11-25T11:09:22.873Z,16.13
2018-11-25T11:11:52.034Z,15.30
2018-11-25T11:14:21.197Z,16.30
2018-11-25T11:16:53.993Z,15.80
2018-11-25T11:19:19.615Z,16.73
2018-11-25T11:21:48.749Z,16.50
2018-11-25T11:24:17.902Z,16.07
2018-11-25T11:26:47.053Z,14.60
2018-11-25T11:29:16.817Z,15.10
2018-11-25T11:31:46.009Z,18.00
2018-11-25T11:34:15.185Z,17.13
2018-11-25T11:36:44.362Z,17.70
2018-11-25T11:39:13.492Z,15.80
2018-11-25T11:41:42.721Z,15.60
2018-11-25T11:44:11.822Z,17.40
2018-11-25T11:46:40.950Z,18.60
2018-11-25T11:49:10.094Z,18.30
2018-11-25T11:51:39.276Z,19.20
2018-11-25T11:54:08.450Z,20.33
2018-11-25T11:56:40.338Z,19.10
2018-11-25T11:59:06.933Z,17.50
2018-11-25T12:01:36.086Z,19.10
2018-11-25T12:04:05.689Z,19.37
2018-11-25T12:06:34.864Z,22.23
2018-11-25T12:09:04.454Z,22.83
2018-11-25T12:11:33.566Z,23.00
2018-11-25T12:14:02.735Z,22.57
2018-11-25T12:16:32.012Z,23.10
2018-11-25T12:19:01.158Z,22.30
2018-11-25T12:21:30.338Z,22.90
2018-11-25T12:23:59.510Z,29.97
2018-11-25T12:26:28.658Z,25.00
2018-11-25T12:28:57.780Z,24.40
2018-11-25T12:31:26.880Z,24.47
2018-11-25T12:33:56.056Z,30.53
2018-11-25T12:36:25.491Z,28.30
2018-11-25T12:38:54.593Z,34.27
2018-11-25T12:41:23.768Z,27.30
2018-11-25T12:43:52.970Z,28.87
2018-11-25T12:46:22.078Z,30.93
2018-11-25T12:48:51.218Z,27.77
2018-11-25T12:51:20.394Z,29.37
2018-11-25T12:53:49.555Z,28.83
2018-11-25T12:56:18.774Z,27.37
2018-11-25T12:58:48.043Z,33.60
2018-11-25T13:01:17.177Z,34.43
2018-11-25T13:03:46.357Z,31.90
2018-11-25T13:06:15.574Z,34.27
2018-11-25T13:08:44.759Z,27.60
2018-11-25T13:11:13.934Z,27.10
2018-11-25T13:13:43.113Z,27.60
2018-11-25T13:16:13.407Z,24.40
2018-11-25T13:18:42.527Z,25.17
2018-11-25T13:21:11.802Z,25.83
2018-11-25T13:23:43.212Z,24.50
2018-11-25T13:26:10.149Z,20.97
2018-11-25T13:28:39.321Z,24.30
2018-11-25T13:31:08.559Z,23.60
2018-11-25T13:33:37.682Z,25.47
2018-11-25T13:36:09.293Z,23.87
2018-11-25T13:38:38.401Z,24.87
2018-11-25T13:41:08.245Z,23.60
2018-11-25T13:43:37.341Z,25.20
2018-11-25T13:46:06.516Z,23.20
2018-11-25T13:48:35.594Z,23.47
2018-11-25T13:51:08.206Z,21.00
2018-11-25T13:53:37.561Z,20.97
2018-11-25T13:56:07.109Z,22.40
2018-11-25T13:58:36.372Z,23.20
2018-11-25T14:01:05.897Z,24.27
2018-11-25T14:03:37.860Z,23.33
2018-11-25T14:06:10.497Z,22.43
2018-11-25T14:08:39.718Z,25.03
2018-11-25T14:11:10.864Z,25.03
2018-11-25T14:13:40.006Z,25.10
2018-11-25T14:16:11.013Z,25.83
2018-11-25T14:18:40.120Z,22.70
2018-11-25T14:21:09.318Z,25.10
2018-11-25T14:23:38.462Z,25.63
2018-11-25T14:26:14.050Z,24.40
2018-11-25T14:28:43.721Z,24.27
2018-11-25T14:31:13.156Z,24.40
2018-11-25T14:33:42.725Z,23.73
2018-11-25T14:36:11.889Z,22.40
2018-11-25T14:38:41.035Z,21.80
2018-11-25T14:41:10.247Z,20.20
2018-11-25T14:43:40.078Z,20.17
2018-11-25T14:46:09.298Z,20.83
2018-11-25T14:48:38.503Z,20.73
2018-11-25T14:51:08.149Z,20.73
2018-11-25T14:53:37.754Z,19.10
2018-11-25T14:56:06.939Z,18.10
2018-11-25T14:58:36.169Z,19.83
2018-11-25T15:01:05.413Z,20.77
2018-11-25T15:03:35.189Z,22.03
2018-11-25T15:06:05.191Z,22.03
2018-11-25T15:08:34.421Z,17.87
2018-11-25T15:11:03.601Z,15.67
2018-11-25T15:13:33.089Z,17.50
2018-11-25T15:16:03.069Z,19.40
2018-11-25T15:18:32.234Z,18.70
2018-11-25T15:21:01.905Z,26.53
2018-11-25T15:23:31.339Z,19.33
2018-11-25T15:26:01.518Z,17.60
2018-11-25T15:28:31.175Z,18.27
2018-11-25T15:31:01.149Z,18.47
2018-11-25T15:33:31.078Z,19.87
2018-11-25T15:36:00.776Z,22.23
2018-11-25T15:38:30.164Z,21.53
2018-11-25T15:40:59.298Z,20.40
2018-11-25T15:43:29.029Z,19.40
2018-11-25T15:45:58.751Z,21.77
2018-11-25T15:48:30.333Z,19.00
2018-11-25T15:51:00.447Z,20.10
2018-11-25T15:53:29.974Z,18.13
2018-11-25T15:56:01.549Z,20.10
2018-11-25T15:58:30.783Z,20.83
2018-11-25T16:00:59.986Z,20.23
2018-11-25T16:03:29.156Z,19.30
2018-11-25T16:06:02.001Z,18.97
2018-11-25T16:08:37.970Z,19.50
2018-11-25T16:11:00.531Z,20.03
2018-11-25T16:13:31.225Z,21.47
2018-11-25T16:16:00.681Z,19.40
2018-11-25T16:18:29.889Z,21.50
2018-11-25T16:20:59.077Z,23.20
2018-11-25T16:23:28.301Z,25.00
2018-11-25T16:26:00.630Z,23.67
2018-11-25T16:28:37.553Z,22.67
2018-11-25T16:31:07.161Z,21.80
2018-11-25T16:33:36.420Z,22.20
2018-11-25T16:36:06.950Z,23.03
2018-11-25T16:38:36.097Z,23.13
2018-11-25T16:41:06.441Z,22.70
2018-11-25T16:43:35.709Z,22.17
2018-11-25T16:46:04.927Z,23.17
2018-11-25T16:48:34.085Z,24.37
2018-11-25T16:51:03.273Z,23.63
2018-11-25T16:53:32.394Z,24.70
2018-11-25T16:56:01.883Z,23.93
2018-11-25T16:58:31.448Z,25.87
2018-11-25T17:01:00.693Z,34.43
2018-11-25T17:03:30.586Z,27.93
2018-11-25T17:05:59.823Z,26.63
2018-11-25T17:08:38.232Z,24.83
2018-11-25T17:11:08.294Z,21.67
2018-11-25T17:13:39.120Z,21.30
2018-11-25T17:16:09.063Z,20.60
2018-11-25T17:18:38.975Z,21.70
2018-11-25T17:21:08.126Z,20.93
2018-11-25T17:23:37.248Z,20.10
2018-11-25T17:26:06.823Z,26.20
2018-11-25T17:28:36.848Z,21.10
2018-11-25T17:31:06.210Z,18.80
2018-11-25T17:33:35.388Z,19.80
2018-11-25T17:36:04.560Z,17.87
2018-11-25T17:38:34.450Z,17.83
2018-11-25T17:41:03.633Z,18.77
2018-11-25T17:43:32.825Z,18.90
2018-11-25T17:46:01.954Z,17.87
2018-11-25T17:48:31.107Z,17.70
2018-11-25T17:51:00.281Z,17.60
2018-11-25T17:53:29.861Z,16.53
2018-11-25T17:55:59.353Z,17.23
2018-11-25T17:58:29.112Z,25.20
2018-11-25T18:01:02.251Z,28.90
2018-11-25T18:03:32.671Z,17.20
2018-11-25T18:06:02.383Z,18.53
2018-11-25T18:08:31.665Z,17.40
2018-11-25T18:11:00.905Z,17.63
2018-11-25T18:13:32.382Z,15.30
2018-11-25T18:16:04.006Z,17.90
2018-11-25T18:19:43.229Z,16.07
2018-11-25T18:22:16.185Z,18.80
2018-11-25T18:24:45.307Z,17.10
2018-11-25T18:27:14.649Z,17.60
2018-11-25T18:29:44.001Z,17.90
2018-11-25T18:32:13.905Z,18.20
2018-11-25T18:34:43.047Z,16.63
2018-11-25T18:37:12.716Z,17.97
2018-11-25T18:39:41.842Z,16.93
2018-11-25T18:42:11.609Z,16.70
2018-11-25T18:44:40.868Z,17.10
2018-11-25T18:47:10.256Z,60.67
2018-11-25T18:49:39.602Z,20.63
2018-11-25T18:52:09.070Z,19.13
2018-11-25T18:54:51.968Z,25.00
2018-11-25T18:57:21.671Z,14.63
2018-11-25T18:59:51.475Z,17.43
2018-11-25T19:02:23.665Z,19.40
2018-11-25T19:04:53.150Z,15.07
2018-11-25T19:07:23.682Z,33.47
2018-11-25T19:09:53.187Z,15.13
2018-11-25T19:12:22.620Z,16.97
2018-11-25T19:14:52.029Z,15.60
2018-11-25T19:17:21.407Z,26.47
2018-11-25T19:19:51.856Z,15.80
2018-11-25T19:22:21.386Z,15.83
2018-11-25T19:24:50.906Z,15.93
2018-11-25T19:27:20.376Z,15.73
2018-11-25T19:29:50.033Z,17.10
2018-11-25T19:32:19.677Z,15.67
2018-11-25T19:34:48.987Z,16.77
2018-11-25T19:37:18.392Z,18.13
2018-11-25T19:39:47.791Z,17.20
2018-11-25T19:42:17.461Z,16.20
2018-11-25T19:44:46.877Z,18.27
2018-11-25T19:47:16.350Z,18.33
2018-11-25T19:49:45.937Z,18.70
2018-11-25T19:52:15.396Z,18.50
2018-11-25T19:54:44.726Z,20.23
2018-11-25T19:57:14.252Z,21.33
2018-11-25T19:59:43.720Z,18.10
2018-11-25T20:02:14.285Z,18.07
2018-11-25T20:04:44.136Z,20.00
2018-11-25T20:07:13.772Z,19.00
2018-11-25T20:09:43.590Z,19.00
2018-11-25T20:12:13.165Z,17.97
2018-11-25T20:14:42.765Z,19.03
2018-11-25T20:17:42.912Z,19.30
2018-11-25T20:20:16.718Z,16.90
2018-11-25T20:22:46.408Z,27.90
2018-11-25T20:25:16.607Z,16.87
2018-11-25T20:27:54.300Z,16.00
2018-11-25T20:30:27.381Z,20.23
2018-11-25T20:33:01.840Z,19.53
2018-11-25T20:35:31.305Z,36.17
2018-11-25T20:38:05.759Z,25.37
2018-11-25T20:40:35.160Z,17.77
2018-11-25T20:43:04.628Z,17.20
2018-11-25T20:45:39.376Z,17.00
2018-11-25T20:48:08.448Z,17.70
2018-11-25T20:50:37.608Z,17.50
2018-11-25T20:53:12.197Z,16.53
2018-11-25T20:55:41.445Z,17.00
2018-11-25T20:58:10.645Z,17.60
2018-11-25T21:00:41.205Z,17.20
2018-11-25T21:03:11.530Z,17.47
2018-11-25T21:05:40.731Z,17.37
2018-11-25T21:08:09.884Z,18.67
2018-11-25T21:10:39.129Z,18.90
2018-11-25T21:13:09.117Z,18.20
2018-11-25T21:15:38.357Z,18.17
2018-11-25T21:18:07.981Z,18.00
2018-11-25T21:20:37.465Z,16.80
2018-11-25T21:23:07.289Z,19.30
2018-11-25T21:25:36.974Z,17.87
2018-11-25T21:28:06.351Z,17.87
2018-11-25T21:30:36.496Z,18.03
2018-11-25T21:33:06.210Z,20.03
2018-11-25T21:35:35.528Z,17.87
2018-11-25T21:38:05.630Z,18.50
2018-11-25T21:40:35.186Z,18.30
2018-11-25T21:43:05.178Z,18.33
2018-11-25T21:45:35.153Z,19.43
2018-11-25T21:48:04.843Z,18.27
2018-11-25T21:50:34.553Z,18.97
2018-11-25T21:53:04.078Z,21.10
2018-11-25T21:55:33.350Z,19.37
2018-11-25T21:58:03.345Z,20.17
2018-11-25T22:00:33.056Z,19.10
2018-11-25T22:03:03.669Z,21.17
2018-11-25T22:05:33.853Z,20.77
2018-11-25T22:08:05.038Z,19.70
2018-11-25T22:10:34.492Z,17.77
2018-11-25T22:13:04.159Z,20.67
2018-11-25T22:15:33.878Z,20.63
2018-11-25T22:18:03.361Z,20.27
2018-11-25T22:20:32.751Z,19.33
2018-11-25T22:23:02.634Z,18.77
2018-11-25T22:25:31.982Z,18.57
2018-11-25T22:28:01.517Z,17.93
2018-11-25T22:30:31.082Z,19.30
2018-11-25T22:33:00.558Z,17.90
2018-11-25T22:35:30.089Z,18.03
2018-11-25T22:37:59.346Z,17.10
2018-11-25T22:40:28.747Z,17.33
2018-11-25T22:42:58.289Z,18.00
2018-11-25T22:45:27.725Z,17.87
2018-11-25T22:47:57.281Z,19.43
2018-11-25T22:50:27.774Z,16.87
2018-11-25T22:52:57.048Z,19.00
2018-11-25T22:55:27.040Z,17.93
2018-11-25T22:57:57.147Z,19.37
2018-11-25T23:00:32.595Z,20.00
2018-11-25T23:03:01.834Z,18.53
2018-11-25T23:05:41.747Z,17.30
2018-11-25T23:08:10.892Z,18.70
2018-11-25T23:10:39.989Z,19.30
2018-11-25T23:13:09.302Z,17.67
2018-11-25T23:15:38.498Z,18.07
2018-11-25T23:18:07.692Z,20.07
2018-11-25T23:20:36.935Z,19.17
2018-11-25T23:23:06.825Z,19.90
2018-11-25T23:25:36.013Z,18.50
2018-11-25T23:28:05.206Z,19.00
2018-11-25T23:30:34.325Z,20.53
2018-11-25T23:33:03.516Z,18.40
2018-11-25T23:35:33.717Z,18.73
2018-11-25T23:38:02.868Z,18.87
2018-11-25T23:40:31.981Z,18.43
2018-11-25T23:43:01.095Z,16.50
2018-11-25T23:45:30.329Z,19.20
2018-11-25T23:47:59.492Z,19.70
2018-11-25T23:50:28.768Z,19.10
2018-11-25T23:53:05.672Z,20.70
2018-11-25T23:55:34.890Z,19.30
2018-11-25T23:58:05.158Z,18.70
